createdAt,value
2023-05-10T05:22:56.528Z,500.00
2023-05-10T05:23:56.436Z,500.00
2023-05-10T05:24:56.296Z,500.00
2023-05-10T05:25:56.755Z,500.00
2023-05-10T05:26:55.988Z,500.00
2023-05-10T05:27:56.264Z,500.00
2023-05-10T05:28:55.696Z,500.00
2023-05-10T05:29:55.448Z,500.00
2023-05-10T05:30:55.246Z,500.00
2023-05-10T05:31:55.642Z,500.00
2023-05-10T05:32:54.879Z,431.00
2023-05-10T05:33:54.640Z,400.00
2023-05-10T05:34:54.428Z,400.00
2023-05-10T05:35:54.220Z,400.00
2023-05-10T05:36:53.989Z,410.00
2023-05-10T05:37:53.769Z,421.00
2023-05-10T05:38:53.545Z,452.00
2023-05-10T05:39:54.178Z,486.00
2023-05-10T05:40:53.099Z,499.00
2023-05-10T05:41:52.883Z,500.00
2023-05-10T05:42:52.688Z,501.00
2023-05-10T05:43:52.424Z,500.00
2023-05-10T05:44:52.207Z,498.00
2023-05-10T05:45:52.036Z,500.00
2023-05-10T05:46:51.777Z,500.00
2023-05-10T05:47:51.596Z,500.00
2023-05-10T05:48:52.180Z,500.00
2023-05-10T05:49:51.126Z,502.00
2023-05-10T05:50:50.933Z,501.00
2023-05-10T05:51:50.714Z,501.00
2023-05-10T05:52:50.507Z,497.00
2023-05-10T05:53:50.451Z,482.00
2023-05-10T05:54:50.053Z,471.00
2023-05-10T05:55:49.836Z,455.00
2023-05-10T05:56:49.677Z,500.00
2023-05-10T05:57:49.368Z,500.00
2023-05-10T05:58:49.137Z,501.00
2023-05-10T05:59:48.917Z,504.00
2023-05-10T06:00:48.683Z,503.00
2023-05-10T06:01:48.475Z,500.00
2023-05-10T06:02:48.361Z,500.00
2023-05-10T06:03:48.751Z,500.00
2023-05-10T06:04:47.847Z,500.00
2023-05-10T06:05:47.537Z,502.00
2023-05-10T06:06:47.346Z,503.00
2023-05-10T06:07:47.092Z,500.00
2023-05-10T06:08:46.860Z,503.00
2023-05-10T06:09:46.632Z,500.00
2023-05-10T06:10:46.423Z,500.00
2023-05-10T06:11:46.184Z,502.00
2023-05-10T06:12:45.978Z,502.00
2023-05-10T06:13:45.746Z,504.00
2023-05-10T06:14:45.521Z,500.00
2023-05-10T06:15:45.302Z,504.00
2023-05-10T06:16:45.098Z,502.00
2023-05-10T06:17:44.863Z,506.00
2023-05-10T06:18:44.619Z,516.00
2023-05-10T06:19:44.377Z,512.00
2023-05-10T06:20:44.201Z,516.00
2023-05-10T06:21:43.925Z,507.00
2023-05-10T06:22:43.733Z,495.00
2023-05-10T06:23:43.503Z,499.00
2023-05-10T06:24:43.280Z,512.00
2023-05-10T06:25:43.057Z,558.00
2023-05-10T06:26:42.865Z,565.00
2023-05-10T06:27:42.612Z,574.00
2023-05-10T06:28:42.407Z,571.00
2023-05-10T06:29:42.186Z,565.00
2023-05-10T06:30:41.957Z,563.00
2023-05-10T06:31:41.757Z,570.00
2023-05-10T06:32:41.595Z,553.00
2023-05-10T06:33:41.307Z,485.00
2023-05-10T06:34:41.107Z,492.00
2023-05-10T06:35:40.906Z,495.00
2023-05-10T06:36:40.725Z,496.00
2023-05-10T06:37:40.536Z,490.00
2023-05-10T06:38:40.365Z,464.00
2023-05-10T06:39:40.195Z,437.00
2023-05-10T06:40:40.054Z,414.00
2023-05-10T06:41:39.920Z,422.00
2023-05-10T06:42:39.748Z,411.00
2023-05-10T06:43:39.584Z,437.00
2023-05-10T06:44:39.391Z,467.00
2023-05-10T06:45:39.219Z,500.00
2023-05-10T06:46:39.073Z,499.00
2023-05-10T06:47:39.518Z,494.00
2023-05-10T06:48:38.669Z,502.00
2023-05-10T06:49:38.502Z,500.00
2023-05-10T06:50:38.293Z,500.00
2023-05-10T06:51:38.105Z,500.00
2023-05-10T06:52:37.905Z,500.00
2023-05-10T06:53:37.719Z,501.00
2023-05-10T06:54:37.541Z,502.00
2023-05-10T06:55:37.357Z,501.00
2023-05-10T06:56:37.177Z,497.00
2023-05-10T06:57:36.994Z,507.00
2023-05-10T06:58:36.810Z,507.00
2023-05-10T06:59:36.748Z,500.00
2023-05-10T07:00:36.441Z,504.00
2023-05-10T07:01:36.299Z,504.00
2023-05-10T07:02:36.097Z,500.00
2023-05-10T07:03:35.851Z,500.00
2023-05-10T07:04:35.739Z,504.00
2023-05-10T07:05:35.630Z,502.00
2023-05-10T07:06:35.267Z,513.00
2023-05-10T07:07:35.040Z,500.00
2023-05-10T07:08:34.830Z,509.00
2023-05-10T07:09:34.679Z,504.00
2023-05-10T07:10:34.521Z,520.00
2023-05-10T07:11:34.375Z,508.00
2023-05-10T07:12:34.281Z,505.00
2023-05-10T07:13:34.126Z,500.00
2023-05-10T07:14:34.081Z,501.00
2023-05-10T07:15:33.735Z,506.00
2023-05-10T07:16:33.632Z,508.00
2023-05-10T07:17:33.420Z,523.00
2023-05-10T07:18:33.210Z,540.00
2023-05-10T07:19:33.011Z,575.00
2023-05-10T07:20:32.828Z,570.00
2023-05-10T07:21:32.670Z,556.00
2023-05-10T07:22:33.423Z,556.00
2023-05-10T07:23:32.238Z,547.00
2023-05-10T07:24:32.062Z,505.00
2023-05-10T07:25:31.863Z,473.00
2023-05-10T07:26:31.670Z,458.00
2023-05-10T07:27:31.473Z,508.00
2023-05-10T07:28:31.262Z,531.00
2023-05-10T07:29:31.063Z,550.00
2023-05-10T07:30:30.874Z,556.00
2023-05-10T07:31:30.724Z,559.00
2023-05-10T07:32:30.574Z,547.00
2023-05-10T07:33:30.252Z,539.00
2023-05-10T07:34:30.077Z,530.00
2023-05-10T07:35:29.860Z,536.00
2023-05-10T07:36:29.676Z,535.00
2023-05-10T07:37:29.492Z,530.00
2023-05-10T07:38:29.345Z,518.00
2023-05-10T07:39:29.205Z,553.00
2023-05-10T07:40:29.034Z,549.00
2023-05-10T07:41:28.880Z,554.00
2023-05-10T07:42:28.743Z,566.00
2023-05-10T07:43:28.601Z,584.00
2023-05-10T07:44:28.457Z,610.00
2023-05-10T07:45:28.357Z,626.00
2023-05-10T07:46:28.313Z,642.00
2023-05-10T07:47:28.045Z,648.00
2023-05-10T07:48:27.852Z,654.00
2023-05-10T07:49:27.708Z,692.00
2023-05-10T07:50:27.588Z,697.00
2023-05-10T07:51:27.422Z,660.00
2023-05-10T07:52:27.315Z,624.00
2023-05-10T07:53:27.134Z,583.00
2023-05-10T07:54:26.984Z,534.00
2023-05-10T07:55:26.830Z,501.00
2023-05-10T07:56:26.675Z,503.00
2023-05-10T07:57:26.534Z,500.00
2023-05-10T07:58:26.398Z,499.00
2023-05-10T07:59:26.237Z,500.00
2023-05-10T08:00:26.091Z,500.00
2023-05-10T08:01:25.929Z,527.00
2023-05-10T08:02:25.859Z,520.00
2023-05-10T08:03:25.709Z,512.00
2023-05-10T08:04:25.537Z,503.00
2023-05-10T08:05:25.330Z,500.00
2023-05-10T08:06:25.186Z,512.00
2023-05-10T08:07:25.040Z,520.00
2023-05-10T08:08:24.888Z,544.00
2023-05-10T08:09:24.958Z,570.00
2023-05-10T08:10:24.590Z,609.00
2023-05-10T08:11:24.430Z,637.00
2023-05-10T08:12:25.862Z,635.00
2023-05-10T08:13:24.854Z,726.00
2023-05-10T08:14:24.832Z,836.00
2023-05-10T08:15:23.793Z,954.00
2023-05-10T08:16:23.805Z,962.00
2023-05-10T08:17:24.799Z,880.00
2023-05-10T08:18:23.372Z,781.00
2023-05-10T08:19:23.137Z,681.00
2023-05-10T08:20:22.979Z,627.00
2023-05-10T08:21:22.795Z,602.00
2023-05-10T08:22:23.295Z,574.00
2023-05-10T08:23:22.472Z,542.00
2023-05-10T08:24:22.466Z,505.00
2023-05-10T08:25:22.145Z,500.00
2023-05-10T08:26:21.998Z,495.00
2023-05-10T08:27:21.809Z,500.00
2023-05-10T08:28:21.632Z,497.00
2023-05-10T08:29:22.426Z,473.00
2023-05-10T08:30:21.255Z,443.00
2023-05-10T08:31:21.061Z,416.00
2023-05-10T08:32:20.859Z,402.00
2023-05-10T08:33:20.657Z,400.00
2023-05-10T08:34:20.468Z,428.00
2023-05-10T08:35:20.282Z,487.00
2023-05-10T08:36:20.074Z,514.00
2023-05-10T08:37:20.864Z,531.00
2023-05-10T08:38:19.695Z,549.00
2023-05-10T08:39:29.406Z,586.00
2023-05-10T08:40:20.332Z,588.00
2023-05-10T08:41:19.123Z,601.00
2023-05-10T08:42:19.163Z,636.00
2023-05-10T08:43:18.746Z,791.00
2023-05-10T08:44:18.570Z,1089.00
2023-05-10T08:45:18.572Z,1171.00
2023-05-10T08:46:18.208Z,1167.00
2023-05-10T08:47:18.068Z,1243.00
2023-05-10T08:48:17.808Z,1263.00
2023-05-10T08:49:17.623Z,1296.00
2023-05-10T08:50:17.465Z,1340.00
2023-05-10T08:51:17.285Z,1360.00
2023-05-10T08:52:17.090Z,1311.00
2023-05-10T08:53:16.954Z,1269.00
2023-05-10T08:54:16.753Z,1246.00
2023-05-10T08:55:16.689Z,1216.00
2023-05-10T08:56:16.409Z,1255.00
2023-05-10T08:57:16.270Z,1330.00
2023-05-10T08:58:16.119Z,1339.00
2023-05-10T08:59:15.985Z,1347.00
2023-05-10T09:00:15.900Z,1341.00
2023-05-10T09:01:15.713Z,1335.00
2023-05-10T09:02:17.375Z,1302.00
2023-05-10T09:03:15.323Z,1222.00
2023-05-10T09:04:15.209Z,1068.00
2023-05-10T09:05:15.110Z,985.00
2023-05-10T09:06:14.725Z,971.00
2023-05-10T09:07:14.523Z,962.00
2023-05-10T09:08:14.326Z,969.00
2023-05-10T09:09:14.109Z,998.00
2023-05-10T09:10:13.916Z,972.00
2023-05-10T09:11:13.726Z,966.00
2023-05-10T09:12:13.477Z,967.00
2023-05-10T09:13:13.262Z,980.00
2023-05-10T09:14:13.056Z,1064.00
2023-05-10T09:15:12.852Z,1192.00
2023-05-10T09:16:21.190Z,1345.00
2023-05-10T09:17:13.478Z,1350.00
2023-05-10T09:18:12.265Z,1371.00
2023-05-10T09:19:12.983Z,1428.00
2023-05-10T09:20:11.809Z,1542.00
2023-05-10T09:21:11.635Z,1682.00
2023-05-10T09:22:11.377Z,1593.00
2023-05-10T09:23:11.178Z,1472.00
2023-05-10T09:24:10.993Z,1516.00
2023-05-10T09:25:10.796Z,1576.00
2023-05-10T09:26:11.373Z,1563.00
2023-05-10T09:27:10.464Z,1650.00
2023-05-10T09:28:10.315Z,1637.00
2023-05-10T09:29:14.200Z,1656.00
2023-05-10T09:30:09.982Z,1657.00
2023-05-10T09:31:09.875Z,1661.00
2023-05-10T09:32:10.612Z,1681.00
2023-05-10T09:33:09.561Z,1756.00
2023-05-10T09:34:09.149Z,1825.00
2023-05-10T09:35:09.105Z,1662.00
2023-05-10T09:36:08.697Z,1666.00
2023-05-10T09:37:08.462Z,1706.00
2023-05-10T09:38:08.250Z,1797.00
2023-05-10T09:39:08.066Z,1915.00
2023-05-10T09:40:10.408Z,2058.00
2023-05-10T09:41:07.806Z,2110.00
2023-05-10T09:42:07.774Z,2133.00
2023-05-10T09:43:08.421Z,2182.00
2023-05-10T09:44:08.338Z,2211.00
2023-05-10T09:46:27.751Z,500.00
2023-05-10T09:47:26.038Z,500.00
2023-05-10T09:48:26.016Z,500.00
2023-05-10T09:49:26.024Z,500.00
2023-05-10T09:50:32.138Z,500.00
2023-05-10T09:52:40.627Z,500.00
2023-05-10T09:53:26.268Z,500.00
2023-05-10T09:54:26.321Z,500.00
2023-05-10T09:55:26.395Z,500.00
2023-05-10T09:56:26.405Z,500.00
2023-05-10T09:57:26.407Z,500.00
2023-05-10T09:58:26.416Z,500.00
2023-05-10T09:59:26.435Z,500.00
2023-05-10T10:00:26.457Z,500.00
2023-05-10T10:01:27.251Z,520.00
2023-05-10T10:02:26.484Z,536.00
2023-05-10T10:03:27.756Z,549.00
2023-05-10T10:04:26.597Z,559.00
2023-05-10T10:05:26.566Z,569.00
2023-05-10T10:06:30.440Z,580.00
2023-05-10T10:07:26.795Z,580.00
2023-05-10T10:08:26.610Z,581.00
2023-05-10T10:09:26.632Z,576.00
2023-05-10T10:10:26.633Z,577.00
2023-05-10T10:11:26.660Z,585.00
2023-05-10T10:12:29.228Z,602.00
2023-05-10T10:13:26.854Z,615.00
2023-05-10T10:14:26.879Z,602.00
2023-05-10T10:15:27.064Z,605.00
2023-05-10T10:16:27.117Z,607.00
2023-05-10T10:17:27.061Z,618.00
2023-05-10T10:18:27.105Z,622.00
2023-05-10T10:19:27.133Z,628.00
2023-05-10T10:20:27.285Z,622.00
2023-05-10T10:21:27.209Z,648.00
2023-05-10T10:22:27.238Z,678.00
2023-05-10T10:23:27.266Z,721.00
2023-05-10T10:24:27.299Z,703.00
2023-05-10T10:25:27.329Z,709.00
2023-05-10T10:26:27.367Z,718.00
2023-05-10T10:27:28.188Z,746.00
2023-05-10T10:28:28.271Z,775.00
2023-05-10T10:29:27.446Z,780.00
2023-05-10T10:30:27.487Z,753.00
2023-05-10T10:31:27.562Z,761.00
2023-05-10T10:32:27.554Z,760.00
2023-05-10T10:33:28.777Z,770.00
2023-05-10T10:34:27.570Z,747.00
2023-05-10T10:35:27.612Z,771.00
2023-05-10T10:36:28.336Z,770.00
2023-05-10T10:37:27.668Z,791.00
2023-05-10T10:38:27.715Z,802.00
2023-05-10T10:39:27.698Z,823.00
2023-05-10T10:40:27.738Z,814.00
2023-05-10T10:41:27.790Z,817.00
2023-05-10T10:42:27.759Z,829.00
2023-05-10T10:43:27.806Z,837.00
2023-05-10T10:44:27.844Z,828.00
2023-05-10T10:45:27.850Z,838.00
2023-05-10T10:46:27.900Z,847.00
2023-05-10T10:47:27.926Z,845.00
2023-05-10T10:48:27.909Z,851.00
2023-05-10T10:49:27.968Z,852.00
2023-05-10T10:50:27.970Z,867.00
2023-05-10T10:51:27.988Z,909.00
2023-05-10T10:52:28.005Z,926.00
2023-05-10T10:53:28.077Z,936.00
2023-05-10T10:54:28.089Z,944.00
2023-05-10T10:55:28.072Z,941.00
2023-05-10T10:56:28.096Z,923.00
2023-05-10T10:57:28.261Z,928.00
2023-05-10T10:58:28.131Z,926.00
2023-05-10T10:59:28.153Z,932.00
2023-05-10T11:00:28.224Z,915.00
2023-05-10T11:01:28.294Z,900.00
2023-05-10T11:02:31.213Z,901.00
2023-05-10T11:03:28.345Z,914.00
2023-05-10T11:04:28.399Z,904.00
2023-05-10T11:05:28.349Z,901.00
2023-05-10T11:06:28.352Z,893.00
2023-05-10T11:07:28.360Z,911.00
2023-05-10T11:08:28.353Z,923.00
2023-05-10T11:09:28.371Z,911.00
2023-05-10T11:10:28.359Z,905.00
2023-05-10T11:11:28.380Z,912.00
2023-05-10T11:12:28.383Z,904.00
2023-05-10T11:13:28.377Z,829.00
2023-05-10T11:14:28.363Z,773.00
2023-05-10T11:15:28.362Z,728.00
2023-05-10T11:16:28.469Z,678.00
2023-05-10T11:17:28.408Z,646.00
2023-05-10T11:18:28.483Z,628.00
2023-05-10T11:19:28.369Z,619.00
2023-05-10T11:20:28.371Z,607.00
2023-05-10T11:21:28.376Z,623.00
2023-05-10T11:22:28.369Z,658.00
2023-05-10T11:23:28.365Z,666.00
2023-05-10T11:24:28.374Z,636.00
2023-05-10T11:25:28.365Z,618.00
2023-05-10T11:26:28.360Z,612.00
2023-05-10T11:27:28.395Z,624.00
2023-05-10T11:28:28.352Z,589.00
2023-05-10T11:29:28.363Z,560.00
2023-05-10T11:30:28.333Z,554.00
2023-05-10T11:31:28.358Z,516.00
2023-05-10T11:32:28.342Z,488.00
2023-05-10T11:33:29.238Z,439.00
2023-05-10T11:34:28.343Z,416.00
2023-05-10T11:35:28.328Z,433.00
2023-05-10T11:36:28.362Z,474.00
2023-05-10T11:37:28.351Z,500.00
2023-05-10T11:38:28.351Z,519.00
2023-05-10T11:39:28.351Z,504.00
2023-05-10T11:40:28.368Z,530.00
2023-05-10T11:41:28.380Z,517.00
2023-05-10T11:42:28.380Z,544.00
2023-05-10T11:43:28.399Z,503.00
2023-05-10T11:44:28.402Z,498.00
2023-05-10T11:45:28.391Z,500.00
2023-05-10T11:46:28.523Z,500.00
2023-05-10T11:47:28.437Z,499.00
2023-05-10T11:48:28.397Z,501.00
2023-05-10T11:49:28.454Z,503.00
2023-05-10T11:50:28.417Z,501.00
2023-05-10T11:51:28.523Z,505.00
2023-05-10T11:52:28.573Z,524.00
2023-05-10T11:53:28.422Z,537.00
2023-05-10T11:54:28.531Z,574.00
2023-05-10T11:55:28.423Z,645.00
2023-05-10T11:56:28.470Z,670.00
2023-05-10T11:57:28.429Z,630.00
2023-05-10T11:58:28.405Z,674.00
2023-05-10T11:59:28.479Z,682.00
2023-05-10T12:00:28.416Z,758.00
2023-05-10T12:01:28.430Z,811.00
2023-05-10T12:02:28.510Z,803.00
2023-05-10T12:03:28.567Z,862.00
2023-05-10T12:04:28.558Z,939.00
2023-05-10T12:05:28.459Z,993.00
2023-05-10T12:06:28.462Z,1045.00
2023-05-10T12:07:28.470Z,1083.00
2023-05-10T12:08:33.254Z,1123.00
2023-05-10T12:09:42.733Z,1125.00
2023-05-10T12:10:29.486Z,1126.00
2023-05-10T12:11:28.471Z,1138.00
2023-05-10T12:12:28.434Z,1159.00
2023-05-10T12:13:28.440Z,1190.00
2023-05-10T12:14:28.424Z,1248.00
2023-05-10T12:15:28.437Z,1252.00
2023-05-10T12:16:28.533Z,1260.00
2023-05-10T12:17:28.458Z,1292.00
2023-05-10T12:18:28.460Z,1295.00
2023-05-10T12:19:28.436Z,1335.00
2023-05-10T12:20:28.451Z,1348.00
2023-05-10T12:21:29.280Z,1356.00
2023-05-10T12:22:28.443Z,1377.00
2023-05-10T12:23:28.446Z,1387.00
2023-05-10T12:24:28.498Z,1401.00
2023-05-10T12:25:28.464Z,1419.00
2023-05-10T12:26:28.438Z,1407.00
2023-05-10T12:27:28.439Z,1403.00
2023-05-10T12:28:28.435Z,1414.00
2023-05-10T12:29:28.424Z,1411.00
2023-05-10T12:30:28.412Z,1414.00
2023-05-10T12:31:28.455Z,1408.00
2023-05-10T12:32:28.487Z,1406.00
2023-05-10T12:33:28.406Z,1404.00
2023-05-10T12:34:28.423Z,1401.00
2023-05-10T12:35:28.400Z,1396.00
2023-05-10T12:36:28.400Z,1379.00
2023-05-10T12:37:28.389Z,1381.00
2023-05-10T12:38:28.391Z,1371.00
2023-05-10T12:39:28.422Z,1384.00
2023-05-10T12:40:28.396Z,1457.00
2023-05-10T12:41:28.391Z,1466.00
2023-05-10T12:42:28.411Z,1486.00
2023-05-10T12:43:28.379Z,1508.00
2023-05-10T12:44:28.383Z,1520.00
2023-05-10T12:45:28.391Z,1537.00
2023-05-10T12:46:28.426Z,1539.00
2023-05-10T12:47:28.395Z,1541.00
2023-05-10T12:48:28.406Z,1561.00
2023-05-10T12:49:28.437Z,1567.00
2023-05-10T12:50:28.429Z,1570.00
2023-05-10T12:51:28.433Z,1577.00
2023-05-10T12:52:28.447Z,1579.00
2023-05-10T12:53:28.433Z,1559.00
2023-05-10T12:54:28.448Z,1553.00
2023-05-10T12:55:28.456Z,1533.00
2023-05-10T12:56:28.464Z,1532.00
2023-05-10T12:57:28.479Z,1547.00
2023-05-10T12:58:35.482Z,1550.00
2023-05-10T12:59:29.488Z,1550.00
2023-05-10T13:00:28.488Z,1548.00
2023-05-10T13:01:28.516Z,1548.00
2023-05-10T13:02:28.505Z,1553.00
2023-05-10T13:03:28.498Z,1582.00
2023-05-10T13:04:28.509Z,1564.00
2023-05-10T13:05:28.481Z,1532.00
2023-05-10T13:06:28.488Z,1488.00
2023-05-10T13:07:28.491Z,1474.00
2023-05-10T13:08:28.502Z,1441.00
2023-05-10T13:09:28.489Z,1436.00
2023-05-10T13:10:28.489Z,1423.00
2023-05-10T13:11:28.494Z,1396.00
2023-05-10T13:12:28.485Z,1405.00
2023-05-10T13:13:28.490Z,1412.00
2023-05-10T13:14:28.484Z,1422.00
2023-05-10T13:15:28.495Z,1424.00
2023-05-10T13:16:28.539Z,1410.00
2023-05-10T13:17:28.517Z,1400.00
2023-05-10T13:18:28.552Z,1399.00
2023-05-10T13:19:28.497Z,1376.00
2023-05-10T13:20:28.499Z,1378.00
2023-05-10T13:21:28.506Z,1367.00
2023-05-10T13:22:39.289Z,1370.00
2023-05-10T13:23:29.493Z,1371.00
2023-05-10T13:24:28.482Z,1352.00
2023-05-10T13:25:28.475Z,1348.00
2023-05-10T13:26:28.492Z,1336.00
2023-05-10T13:27:28.478Z,1327.00
2023-05-10T13:28:28.485Z,1321.00
2023-05-10T13:29:28.478Z,1308.00
2023-05-10T13:30:28.476Z,1304.00
2023-05-10T13:31:28.522Z,1308.00
2023-05-10T13:32:28.503Z,1310.00
2023-05-10T13:33:28.477Z,1305.00
2023-05-10T13:34:28.476Z,1295.00
2023-05-10T13:35:28.485Z,1271.00
2023-05-10T13:36:28.484Z,1243.00
2023-05-10T13:37:28.479Z,1267.00
2023-05-10T13:38:28.477Z,1278.00
2023-05-10T13:39:28.481Z,1283.00
2023-05-10T13:40:28.484Z,1295.00
2023-05-10T13:41:28.500Z,1264.00
2023-05-10T13:42:28.492Z,1247.00
2023-05-10T13:43:28.487Z,1251.00
2023-05-10T13:44:28.492Z,1257.00
2023-05-10T13:45:28.482Z,1255.00
2023-05-10T13:46:28.578Z,1264.00
2023-05-10T13:47:28.503Z,1271.00
2023-05-10T13:48:28.484Z,1283.00
2023-05-10T13:49:28.483Z,1273.00
2023-05-10T13:50:28.481Z,1288.00
2023-05-10T13:51:28.482Z,1273.00
2023-05-10T13:52:28.480Z,1272.00
2023-05-10T13:53:29.016Z,1277.00
2023-05-10T13:54:28.475Z,1263.00
2023-05-10T13:55:28.486Z,1269.00
2023-05-10T13:56:28.525Z,1259.00
2023-05-10T13:57:28.507Z,1273.00
2023-05-10T13:58:28.512Z,1269.00
2023-05-10T13:59:28.521Z,1270.00
2023-05-10T14:00:28.536Z,1300.00
2023-05-10T14:01:28.588Z,1290.00
2023-05-10T14:02:28.673Z,1285.00
2023-05-10T14:03:28.668Z,1288.00
2023-05-10T14:04:28.581Z,1299.00
2023-05-10T14:05:28.862Z,1299.00
2023-05-10T14:06:28.573Z,1283.00
2023-05-10T14:07:28.588Z,1278.00
2023-05-10T14:08:28.610Z,1294.00
2023-05-10T14:09:28.604Z,1280.00
2023-05-10T14:10:28.624Z,1287.00
2023-05-10T14:11:28.645Z,1290.00
2023-05-10T14:12:28.670Z,1288.00
2023-05-10T14:13:28.698Z,1296.00
2023-05-10T14:14:28.696Z,1296.00
2023-05-10T14:15:28.733Z,1256.00
2023-05-10T14:16:28.775Z,1198.00
2023-05-10T14:17:28.771Z,1126.00
2023-05-10T14:18:28.782Z,1083.00
2023-05-10T14:19:28.783Z,1026.00
2023-05-10T14:20:28.800Z,1003.00
2023-05-10T14:21:28.810Z,926.00
2023-05-10T14:22:28.805Z,893.00
2023-05-10T14:23:28.826Z,804.00
2023-05-10T14:24:28.843Z,771.00
2023-05-10T14:25:28.863Z,746.00
2023-05-10T14:26:28.902Z,706.00
2023-05-10T14:27:28.920Z,672.00
2023-05-10T14:28:28.991Z,655.00
2023-05-10T14:29:28.991Z,635.00
2023-05-10T14:30:29.010Z,629.00
2023-05-10T14:31:29.090Z,610.00
2023-05-10T14:32:29.184Z,594.00
2023-05-10T14:33:29.147Z,575.00
2023-05-10T14:34:29.152Z,553.00
2023-05-10T14:35:29.182Z,532.00
2023-05-10T14:36:29.219Z,524.00
2023-05-10T14:37:29.258Z,537.00
2023-05-10T14:38:29.298Z,541.00
2023-05-10T14:39:29.331Z,548.00
2023-05-10T14:40:29.363Z,559.00
2023-05-10T14:41:29.399Z,561.00
2023-05-10T14:42:29.492Z,563.00
2023-05-10T14:43:29.455Z,574.00
2023-05-10T14:44:29.471Z,574.00
2023-05-10T14:45:29.515Z,573.00
2023-05-10T14:46:29.619Z,578.00
2023-05-10T14:47:29.602Z,569.00
2023-05-10T14:48:29.620Z,565.00
2023-05-10T14:49:29.660Z,575.00
2023-05-10T14:51:29.708Z,574.00
2023-05-10T14:52:29.947Z,581.00
2023-05-10T14:53:29.717Z,588.00
2023-05-10T14:54:29.696Z,578.00
2023-05-10T14:55:29.704Z,579.00
2023-05-10T14:56:29.715Z,586.00
2023-05-10T14:57:29.721Z,595.00
2023-05-10T14:58:29.703Z,595.00
2023-05-10T14:59:29.716Z,620.00
2023-05-10T15:00:29.706Z,636.00
2023-05-10T15:01:29.746Z,636.00
2023-05-10T15:02:29.807Z,629.00
2023-05-10T15:03:30.175Z,621.00
2023-05-10T15:04:29.782Z,599.00
2023-05-10T15:05:29.713Z,586.00
2023-05-10T15:06:29.703Z,560.00
2023-05-10T15:07:29.795Z,541.00
2023-05-10T15:08:29.718Z,524.00
2023-05-10T15:09:29.720Z,512.00
2023-05-10T15:10:29.698Z,503.00
2023-05-10T15:11:29.697Z,514.00
2023-05-10T15:12:29.702Z,500.00
2023-05-10T15:13:29.711Z,499.00
2023-05-10T15:14:29.709Z,500.00
2023-05-10T15:15:29.716Z,507.00
2023-05-10T15:16:29.777Z,502.00
2023-05-10T15:17:29.768Z,501.00
2023-05-10T15:18:29.785Z,511.00
2023-05-10T15:19:29.750Z,513.00
2023-05-10T15:20:29.741Z,518.00
2023-05-10T15:21:29.748Z,518.00
2023-05-10T15:22:29.743Z,529.00
2023-05-10T15:23:29.762Z,597.00
2023-05-10T15:24:29.762Z,618.00
2023-05-10T15:25:29.818Z,628.00
2023-05-10T15:26:29.758Z,620.00
2023-05-10T15:27:29.762Z,624.00
2023-05-10T15:28:29.760Z,630.00
2023-05-10T15:29:29.761Z,638.00
2023-05-10T15:30:29.759Z,634.00
2023-05-10T15:31:29.806Z,644.00
2023-05-10T15:32:29.758Z,772.00
2023-05-10T15:33:29.740Z,964.00
2023-05-10T15:34:29.792Z,1068.00
2023-05-10T15:35:29.728Z,1132.00
2023-05-10T15:36:29.743Z,1181.00
2023-05-10T15:37:29.722Z,1223.00
2023-05-10T15:38:29.726Z,1234.00
2023-05-10T15:39:29.729Z,1255.00
2023-05-10T15:40:29.722Z,1260.00
2023-05-10T15:41:29.779Z,1270.00
2023-05-10T15:42:29.722Z,1287.00
2023-05-10T15:43:29.702Z,1291.00
2023-05-10T15:44:29.709Z,1302.00
2023-05-10T15:45:29.726Z,1323.00
2023-05-10T15:46:29.739Z,1316.00
2023-05-10T15:47:29.789Z,1318.00
2023-05-10T15:48:29.743Z,1306.00
2023-05-10T15:49:29.746Z,1300.00
2023-05-10T15:50:29.764Z,1315.00
2023-05-10T15:51:29.778Z,1315.00
2023-05-10T15:52:29.832Z,1337.00
2023-05-10T15:53:29.817Z,1320.00
2023-05-10T15:54:29.832Z,1335.00
2023-05-10T15:55:29.856Z,1319.00
2023-05-10T15:56:29.862Z,1320.00
2023-05-10T15:57:29.881Z,1328.00
2023-05-10T15:58:29.918Z,1321.00
2023-05-10T15:59:29.905Z,1337.00
2023-05-10T16:00:29.920Z,1321.00
2023-05-10T16:01:29.980Z,1325.00
2023-05-10T16:02:30.025Z,1314.00
2023-05-10T16:03:29.978Z,1307.00
2023-05-10T16:04:29.966Z,1313.00
2023-05-10T16:05:29.997Z,1323.00
2023-05-10T16:06:29.996Z,1330.00
2023-05-10T16:07:30.364Z,1319.00
2023-05-10T16:08:30.031Z,1310.00
2023-05-10T16:09:30.036Z,1327.00
2023-05-10T16:10:30.062Z,1306.00
2023-05-10T16:11:30.084Z,1305.00
2023-05-10T16:12:30.090Z,1322.00
2023-05-10T16:13:30.117Z,1318.00
2023-05-10T16:14:30.137Z,1330.00
2023-05-10T16:15:30.139Z,1314.00
2023-05-10T16:16:30.300Z,1305.00
2023-05-10T16:17:30.216Z,1296.00
2023-05-10T16:18:30.315Z,1302.00
2023-05-10T16:19:30.231Z,1307.00
2023-05-10T16:20:30.223Z,1298.00
2023-05-10T16:21:30.231Z,1295.00
2023-05-10T16:22:30.242Z,1306.00
2023-05-10T16:23:30.259Z,1313.00
2023-05-10T16:24:30.272Z,1296.00
2023-05-10T16:25:30.300Z,1305.00
2023-05-10T16:26:30.301Z,1296.00
2023-05-10T16:27:30.477Z,1297.00
2023-05-10T16:28:30.333Z,1319.00
2023-05-10T16:29:30.361Z,1308.00
2023-05-10T16:30:30.411Z,1305.00
2023-05-10T16:31:30.426Z,1294.00
2023-05-10T16:32:30.454Z,1291.00
2023-05-10T16:33:30.436Z,1293.00
2023-05-10T16:34:30.453Z,1302.00
2023-05-10T16:35:30.478Z,1299.00
2023-05-10T16:36:30.485Z,1303.00
2023-05-10T16:37:30.503Z,1305.00
2023-05-10T16:38:30.507Z,1296.00
2023-05-10T16:39:30.521Z,1303.00
2023-05-10T16:40:30.540Z,1287.00
2023-05-10T16:41:30.555Z,1283.00
2023-05-10T16:42:30.566Z,1297.00
2023-05-10T16:43:30.577Z,1278.00
2023-05-10T16:44:30.606Z,1296.00
2023-05-10T16:45:30.612Z,1300.00
2023-05-10T16:46:30.671Z,1290.00
2023-05-10T16:47:30.698Z,1301.00
2023-05-10T16:48:30.668Z,1291.00
2023-05-10T16:49:30.678Z,1297.00
2023-05-10T16:50:30.699Z,1300.00
2023-05-10T16:51:30.740Z,1288.00
2023-05-10T16:52:30.745Z,1283.00
2023-05-10T16:53:30.754Z,1298.00
2023-05-10T16:54:30.768Z,1291.00
2023-05-10T16:55:30.797Z,1288.00
2023-05-10T16:56:30.802Z,1285.00
2023-05-10T16:57:30.819Z,1284.00
2023-05-10T16:58:30.838Z,1281.00
2023-05-10T16:59:30.850Z,1290.00
2023-05-10T17:00:30.878Z,1283.00
2023-05-10T17:01:30.948Z,1287.00
2023-05-10T17:02:31.030Z,1286.00
2023-05-10T17:03:31.175Z,1282.00
2023-05-10T17:04:30.936Z,1297.00
2023-05-10T17:05:30.968Z,1276.00
2023-05-10T17:06:30.981Z,1270.00
2023-05-10T17:07:31.011Z,1278.00
2023-05-10T17:08:31.001Z,1284.00
2023-05-10T17:09:31.017Z,1268.00
2023-05-10T17:10:31.052Z,1290.00
2023-05-10T17:11:31.061Z,1264.00
2023-05-10T17:12:31.085Z,1260.00
2023-05-10T17:13:31.092Z,1270.00
2023-05-10T17:14:31.105Z,1254.00
2023-05-10T17:15:31.155Z,1262.00
2023-05-10T17:16:31.167Z,1260.00
2023-05-10T17:17:31.202Z,1247.00
2023-05-10T17:18:31.232Z,1258.00
2023-05-10T17:19:31.199Z,1253.00
2023-05-10T17:20:31.230Z,1252.00
2023-05-10T17:21:31.245Z,1252.00
2023-05-10T17:22:31.259Z,1250.00
2023-05-10T17:23:31.295Z,1251.00
2023-05-10T17:24:31.310Z,1254.00
2023-05-10T17:25:31.313Z,1248.00
2023-05-10T17:26:31.335Z,1241.00
2023-05-10T17:27:31.361Z,1235.00
2023-05-10T17:28:31.392Z,1245.00
2023-05-10T17:29:31.393Z,1249.00
2023-05-10T17:30:31.414Z,1238.00
2023-05-10T17:31:31.478Z,1243.00
2023-05-10T17:32:31.524Z,1213.00
2023-05-10T17:33:31.471Z,1226.00
2023-05-10T17:34:31.479Z,1221.00
2023-05-10T17:35:31.521Z,1218.00
2023-05-10T17:36:31.517Z,1215.00
2023-05-10T17:37:31.532Z,1219.00
2023-05-10T17:38:31.561Z,1207.00
2023-05-10T17:39:31.577Z,1219.00
2023-05-10T17:40:31.608Z,1240.00
2023-05-10T17:41:31.621Z,1195.00
2023-05-10T17:42:31.624Z,1202.00
2023-05-10T17:43:31.677Z,1212.00